sensor_id;sensor_type;location;lat;lon;timestamp;temperature;humidity
28773;DHT22;15925;51.222;5.678;2023-05-10T00:00:54;14.80;99.90
28773;DHT22;15925;51.222;5.678;2023-05-10T00:03:20;14.90;99.90
28773;DHT22;15925;51.222;5.678;2023-05-10T00:05:45;14.90;99.90
28773;DHT22;15925;51.222;5.678;2023-05-10T00:08:11;14.90;99.90
28773;DHT22;15925;51.222;5.678;2023-05-10T00:10:37;14.90;99.90
28773;DHT22;15925;51.222;5.678;2023-05-10T00:13:03;14.90;99.90
28773;DHT22;15925;51.222;5.678;2023-05-10T00:15:29;14.90;99.90
28773;DHT22;15925;51.222;5.678;2023-05-10T00:17:56;14.90;99.90
28773;DHT22;15925;51.222;5.678;2023-05-10T00:20:21;14.80;99.90
28773;DHT22;15925;51.222;5.678;2023-05-10T00:22:47;14.70;99.90
28773;DHT22;15925;51.222;5.678;2023-05-10T00:25:13;14.70;99.90
28773;DHT22;15925;51.222;5.678;2023-05-10T00:27:39;14.70;99.90
28773;DHT22;15925;51.222;5.678;2023-05-10T00:30:05;14.70;99.90
28773;DHT22;15925;51.222;5.678;2023-05-10T00:32:31;14.80;99.90
28773;DHT22;15925;51.222;5.678;2023-05-10T00:34:57;14.80;99.90
28773;DHT22;15925;51.222;5.678;2023-05-10T00:37:23;14.80;99.90
28773;DHT22;15925;51.222;5.678;2023-05-10T00:39:49;14.70;99.90
28773;DHT22;15925;51.222;5.678;2023-05-10T00:42:15;14.60;99.90
28773;DHT22;15925;51.222;5.678;2023-05-10T00:44:41;14.50;99.90
28773;DHT22;15925;51.222;5.678;2023-05-10T00:47:07;14.70;99.90
28773;DHT22;15925;51.222;5.678;2023-05-10T00:49:34;14.70;99.90
28773;DHT22;15925;51.222;5.678;2023-05-10T00:52:01;14.80;99.90
28773;DHT22;15925;51.222;5.678;2023-05-10T00:54:27;14.70;99.90
28773;DHT22;15925;51.222;5.678;2023-05-10T00:56:53;14.80;99.90
28773;DHT22;15925;51.222;5.678;2023-05-10T00:59:20;14.80;99.90
28773;DHT22;15925;51.222;5.678;2023-05-10T01:01:46;14.80;99.90
28773;DHT22;15925;51.222;5.678;2023-05-10T01:04:13;14.80;99.90
28773;DHT22;15925;51.222;5.678;2023-05-10T01:06:40;14.90;99.90
28773;DHT22;15925;51.222;5.678;2023-05-10T01:09:06;14.90;99.90
28773;DHT22;15925;51.222;5.678;2023-05-10T01:11:37;14.90;99.90
28773;DHT22;15925;51.222;5.678;2023-05-10T01:14:04;14.90;99.90
28773;DHT22;15925;51.222;5.678;2023-05-10T01:16:36;14.90;99.90
28773;DHT22;15925;51.222;5.678;2023-05-10T01:19:05;14.90;99.90
28773;DHT22;15925;51.222;5.678;2023-05-10T01:35:10;14.60;99.90
28773;DHT22;15925;51.222;5.678;2023-05-10T01:37:46;14.60;99.90
28773;DHT22;15925;51.222;5.678;2023-05-10T01:40:28;14.50;99.90
28773;DHT22;15925;51.222;5.678;2023-05-10T01:43:01;14.50;99.90
28773;DHT22;15925;51.222;5.678;2023-05-10T01:45:55;14.50;99.90
28773;DHT22;15925;51.222;5.678;2023-05-10T01:48:23;14.40;99.90
28773;DHT22;15925;51.222;5.678;2023-05-10T01:50:53;14.40;99.90
28773;DHT22;15925;51.222;5.678;2023-05-10T01:53:19;14.30;99.90
28773;DHT22;15925;51.222;5.678;2023-05-10T01:55:53;14.40;99.90
28773;DHT22;15925;51.222;5.678;2023-05-10T01:58:25;14.30;99.90
28773;DHT22;15925;51.222;5.678;2023-05-10T02:00:53;14.40;99.90
28773;DHT22;15925;51.222;5.678;2023-05-10T02:03:24;14.40;99.90
28773;DHT22;15925;51.222;5.678;2023-05-10T02:05:52;14.50;99.90
28773;DHT22;15925;51.222;5.678;2023-05-10T02:08:22;14.60;99.90
28773;DHT22;15925;51.222;5.678;2023-05-10T02:10:50;14.60;99.90
28773;DHT22;15925;51.222;5.678;2023-05-10T02:13:18;14.50;99.90
28773;DHT22;15925;51.222;5.678;2023-05-10T02:15:47;14.50;99.90
28773;DHT22;15925;51.222;5.678;2023-05-10T02:18:14;14.50;99.90
28773;DHT22;15925;51.222;5.678;2023-05-10T02:20:42;14.40;99.90
28773;DHT22;15925;51.222;5.678;2023-05-10T02:23:09;14.40;99.90
28773;DHT22;15925;51.222;5.678;2023-05-10T02:25:36;14.40;99.90
28773;DHT22;15925;51.222;5.678;2023-05-10T02:28:05;14.30;99.90
28773;DHT22;15925;51.222;5.678;2023-05-10T02:30:33;14.30;99.90
28773;DHT22;15925;51.222;5.678;2023-05-10T02:33:00;14.30;99.90
28773;DHT22;15925;51.222;5.678;2023-05-10T02:35:28;14.20;99.90
28773;DHT22;15925;51.222;5.678;2023-05-10T02:37:55;14.20;99.90
28773;DHT22;15925;51.222;5.678;2023-05-10T02:40:22;14.30;99.90
28773;DHT22;15925;51.222;5.678;2023-05-10T02:42:51;14.20;99.90
28773;DHT22;15925;51.222;5.678;2023-05-10T02:45:21;14.20;99.90
28773;DHT22;15925;51.222;5.678;2023-05-10T02:47:48;14.10;99.90
28773;DHT22;15925;51.222;5.678;2023-05-10T02:50:14;14.10;99.90
28773;DHT22;15925;51.222;5.678;2023-05-10T02:52:44;14.10;99.90
28773;DHT22;15925;51.222;5.678;2023-05-10T02:55:13;14.00;99.90
28773;DHT22;15925;51.222;5.678;2023-05-10T02:57:50;14.00;99.90
28773;DHT22;15925;51.222;5.678;2023-05-10T03:00:17;13.90;99.90
28773;DHT22;15925;51.222;5.678;2023-05-10T03:02:43;14.00;99.90
28773;DHT22;15925;51.222;5.678;2023-05-10T03:05:09;14.00;99.90
28773;DHT22;15925;51.222;5.678;2023-05-10T03:07:35;14.00;99.90
28773;DHT22;15925;51.222;5.678;2023-05-10T03:10:01;13.90;99.90
28773;DHT22;15925;51.222;5.678;2023-05-10T03:12:59;14.00;99.90
28773;DHT22;15925;51.222;5.678;2023-05-10T03:18:06;14.00;99.90
28773;DHT22;15925;51.222;5.678;2023-05-10T03:23:21;13.90;99.90
28773;DHT22;15925;51.222;5.678;2023-05-10T03:25:49;13.90;99.90
28773;DHT22;15925;51.222;5.678;2023-05-10T03:28:17;13.80;99.90
28773;DHT22;15925;51.222;5.678;2023-05-10T03:30:44;13.80;99.90
28773;DHT22;15925;51.222;5.678;2023-05-10T03:33:12;13.80;99.90
28773;DHT22;15925;51.222;5.678;2023-05-10T03:35:41;13.80;99.90
28773;DHT22;15925;51.222;5.678;2023-05-10T03:38:07;13.80;99.90
28773;DHT22;15925;51.222;5.678;2023-05-10T03:40:33;13.70;99.90
28773;DHT22;15925;51.222;5.678;2023-05-10T03:42:59;13.80;99.90
28773;DHT22;15925;51.222;5.678;2023-05-10T03:45:26;13.70;99.90
28773;DHT22;15925;51.222;5.678;2023-05-10T03:47:52;13.80;99.90
28773;DHT22;15925;51.222;5.678;2023-05-10T03:50:18;13.80;99.90
28773;DHT22;15925;51.222;5.678;2023-05-10T03:52:44;13.80;99.90
28773;DHT22;15925;51.222;5.678;2023-05-10T03:55:10;13.90;99.90
28773;DHT22;15925;51.222;5.678;2023-05-10T03:57:37;13.80;99.90
28773;DHT22;15925;51.222;5.678;2023-05-10T04:00:03;13.80;99.90
28773;DHT22;15925;51.222;5.678;2023-05-10T04:02:39;13.80;99.90
28773;DHT22;15925;51.222;5.678;2023-05-10T04:05:07;13.90;99.90
28773;DHT22;15925;51.222;5.678;2023-05-10T04:07:33;13.90;99.90
28773;DHT22;15925;51.222;5.678;2023-05-10T04:09:59;13.80;99.90
28773;DHT22;15925;51.222;5.678;2023-05-10T04:12:25;13.80;99.90
28773;DHT22;15925;51.222;5.678;2023-05-10T04:14:51;13.70;99.90
28773;DHT22;15925;51.222;5.678;2023-05-10T04:17:17;13.70;99.90
28773;DHT22;15925;51.222;5.678;2023-05-10T04:19:42;13.60;99.90
28773;DHT22;15925;51.222;5.678;2023-05-10T04:22:08;13.60;99.90
28773;DHT22;15925;51.222;5.678;2023-05-10T04:24:34;13.60;99.90
28773;DHT22;15925;51.222;5.678;2023-05-10T04:27:00;13.60;99.90
28773;DHT22;15925;51.222;5.678;2023-05-10T04:29:26;13.60;99.90
28773;DHT22;15925;51.222;5.678;2023-05-10T04:31:52;13.50;99.90
28773;DHT22;15925;51.222;5.678;2023-05-10T04:34:20;13.50;99.90
28773;DHT22;15925;51.222;5.678;2023-05-10T04:36:46;13.50;99.90
28773;DHT22;15925;51.222;5.678;2023-05-10T04:39:12;13.50;99.90
28773;DHT22;15925;51.222;5.678;2023-05-10T04:41:39;13.50;99.90
28773;DHT22;15925;51.222;5.678;2023-05-10T04:44:05;13.50;99.90
28773;DHT22;15925;51.222;5.678;2023-05-10T04:46:31;13.40;99.90
28773;DHT22;15925;51.222;5.678;2023-05-10T04:48:57;13.50;99.90
28773;DHT22;15925;51.222;5.678;2023-05-10T04:51:23;13.50;99.90
28773;DHT22;15925;51.222;5.678;2023-05-10T04:53:48;13.50;99.90
28773;DHT22;15925;51.222;5.678;2023-05-10T04:56:14;13.60;99.90
28773;DHT22;15925;51.222;5.678;2023-05-10T04:58:41;13.50;99.90
28773;DHT22;15925;51.222;5.678;2023-05-10T05:01:07;13.50;99.90
28773;DHT22;15925;51.222;5.678;2023-05-10T05:03:33;13.60;99.90
28773;DHT22;15925;51.222;5.678;2023-05-10T05:05:59;13.50;99.90
28773;DHT22;15925;51.222;5.678;2023-05-10T05:08:25;13.50;99.90
28773;DHT22;15925;51.222;5.678;2023-05-10T05:10:51;13.60;99.90
28773;DHT22;15925;51.222;5.678;2023-05-10T05:13:17;13.60;99.90
28773;DHT22;15925;51.222;5.678;2023-05-10T05:15:43;13.70;99.90
28773;DHT22;15925;51.222;5.678;2023-05-10T05:18:08;13.70;99.90
28773;DHT22;15925;51.222;5.678;2023-05-10T05:20:34;13.80;99.90
28773;DHT22;15925;51.222;5.678;2023-05-10T05:23:01;13.80;99.90
28773;DHT22;15925;51.222;5.678;2023-05-10T05:25:26;13.80;99.90
28773;DHT22;15925;51.222;5.678;2023-05-10T05:27:52;13.80;99.90
28773;DHT22;15925;51.222;5.678;2023-05-10T05:30:18;13.90;99.90
28773;DHT22;15925;51.222;5.678;2023-05-10T05:32:44;13.90;99.90
28773;DHT22;15925;51.222;5.678;2023-05-10T05:35:10;13.90;99.90
28773;DHT22;15925;51.222;5.678;2023-05-10T05:37:36;13.90;99.90
28773;DHT22;15925;51.222;5.678;2023-05-10T05:40:03;13.80;99.90
28773;DHT22;15925;51.222;5.678;2023-05-10T05:42:30;13.80;99.90
28773;DHT22;15925;51.222;5.678;2023-05-10T05:44:57;13.70;99.90
28773;DHT22;15925;51.222;5.678;2023-05-10T05:47:22;13.80;99.90
28773;DHT22;15925;51.222;5.678;2023-05-10T05:49:49;13.80;99.90
28773;DHT22;15925;51.222;5.678;2023-05-10T05:52:15;13.60;99.90
28773;DHT22;15925;51.222;5.678;2023-05-10T05:54:40;13.60;99.90
28773;DHT22;15925;51.222;5.678;2023-05-10T05:57:06;13.60;99.90
28773;DHT22;15925;51.222;5.678;2023-05-10T05:59:33;13.60;99.90
28773;DHT22;15925;51.222;5.678;2023-05-10T06:01:58;13.70;99.90
28773;DHT22;15925;51.222;5.678;2023-05-10T06:04:24;13.60;99.90
28773;DHT22;15925;51.222;5.678;2023-05-10T06:06:50;13.70;99.90
28773;DHT22;15925;51.222;5.678;2023-05-10T06:09:16;13.80;99.90
28773;DHT22;15925;51.222;5.678;2023-05-10T06:11:42;13.80;99.90
28773;DHT22;15925;51.222;5.678;2023-05-10T06:14:07;13.80;99.90
28773;DHT22;15925;51.222;5.678;2023-05-10T06:16:34;13.80;99.90
28773;DHT22;15925;51.222;5.678;2023-05-10T06:19:00;13.80;99.90
28773;DHT22;15925;51.222;5.678;2023-05-10T06:21:26;13.90;99.90
28773;DHT22;15925;51.222;5.678;2023-05-10T06:23:52;13.90;99.90
28773;DHT22;15925;51.222;5.678;2023-05-10T06:26:17;13.90;99.90
28773;DHT22;15925;51.222;5.678;2023-05-10T06:28:43;13.80;99.90
28773;DHT22;15925;51.222;5.678;2023-05-10T06:31:09;13.90;99.90
28773;DHT22;15925;51.222;5.678;2023-05-10T06:33:37;13.80;99.90
28773;DHT22;15925;51.222;5.678;2023-05-10T06:36:03;13.80;99.90
28773;DHT22;15925;51.222;5.678;2023-05-10T06:38:29;13.90;99.90
28773;DHT22;15925;51.222;5.678;2023-05-10T06:40:55;13.90;99.90
28773;DHT22;15925;51.222;5.678;2023-05-10T06:43:21;14.00;99.90
28773;DHT22;15925;51.222;5.678;2023-05-10T06:45:48;13.90;99.90
28773;DHT22;15925;51.222;5.678;2023-05-10T06:48:13;14.00;99.90
28773;DHT22;15925;51.222;5.678;2023-05-10T06:50:39;14.00;99.90
28773;DHT22;15925;51.222;5.678;2023-05-10T06:53:05;14.00;99.90
28773;DHT22;15925;51.222;5.678;2023-05-10T06:55:31;14.00;99.90
28773;DHT22;15925;51.222;5.678;2023-05-10T06:57:57;14.10;99.90
28773;DHT22;15925;51.222;5.678;2023-05-10T07:00:22;14.10;99.90
28773;DHT22;15925;51.222;5.678;2023-05-10T07:02:48;14.20;99.90
28773;DHT22;15925;51.222;5.678;2023-05-10T07:05:14;14.10;99.90
28773;DHT22;15925;51.222;5.678;2023-05-10T07:07:40;14.00;99.90
28773;DHT22;15925;51.222;5.678;2023-05-10T07:10:06;14.10;99.90
28773;DHT22;15925;51.222;5.678;2023-05-10T07:12:33;14.10;99.90
28773;DHT22;15925;51.222;5.678;2023-05-10T07:14:59;14.10;99.90
28773;DHT22;15925;51.222;5.678;2023-05-10T07:17:25;14.10;99.90
28773;DHT22;15925;51.222;5.678;2023-05-10T07:19:50;14.10;99.90
28773;DHT22;15925;51.222;5.678;2023-05-10T07:22:17;14.20;99.90
28773;DHT22;15925;51.222;5.678;2023-05-10T07:24:43;14.20;99.90
28773;DHT22;15925;51.222;5.678;2023-05-10T07:27:09;14.20;99.90
28773;DHT22;15925;51.222;5.678;2023-05-10T07:29:35;14.20;99.90
28773;DHT22;15925;51.222;5.678;2023-05-10T07:32:01;14.10;99.90
28773;DHT22;15925;51.222;5.678;2023-05-10T07:34:27;14.10;99.90
28773;DHT22;15925;51.222;5.678;2023-05-10T07:36:54;14.10;99.90
28773;DHT22;15925;51.222;5.678;2023-05-10T07:39:19;14.10;99.90
28773;DHT22;15925;51.222;5.678;2023-05-10T07:41:48;14.20;99.90
28773;DHT22;15925;51.222;5.678;2023-05-10T07:44:14;14.20;99.90
28773;DHT22;15925;51.222;5.678;2023-05-10T07:46:40;14.30;99.90
28773;DHT22;15925;51.222;5.678;2023-05-10T07:49:06;14.30;99.90
28773;DHT22;15925;51.222;5.678;2023-05-10T07:51:31;14.40;99.90
28773;DHT22;15925;51.222;5.678;2023-05-10T07:53:57;14.30;99.90
28773;DHT22;15925;51.222;5.678;2023-05-10T07:56:27;14.30;99.90
28773;DHT22;15925;51.222;5.678;2023-05-10T07:58:58;14.30;99.90
28773;DHT22;15925;51.222;5.678;2023-05-10T08:01:25;14.30;99.90
28773;DHT22;15925;51.222;5.678;2023-05-10T08:03:51;14.40;99.90
28773;DHT22;15925;51.222;5.678;2023-05-10T08:06:19;14.30;99.90
28773;DHT22;15925;51.222;5.678;2023-05-10T08:08:46;14.30;99.90
28773;DHT22;15925;51.222;5.678;2023-05-10T08:11:17;14.20;99.90
28773;DHT22;15925;51.222;5.678;2023-05-10T08:13:48;14.30;99.90
28773;DHT22;15925;51.222;5.678;2023-05-10T08:16:14;14.30;99.90
28773;DHT22;15925;51.222;5.678;2023-05-10T08:18:41;14.20;99.90
28773;DHT22;15925;51.222;5.678;2023-05-10T08:21:07;14.30;99.90
28773;DHT22;15925;51.222;5.678;2023-05-10T08:23:33;14.40;99.90
28773;DHT22;15925;51.222;5.678;2023-05-10T08:25:59;14.40;99.90
28773;DHT22;15925;51.222;5.678;2023-05-10T08:28:25;14.30;99.90
28773;DHT22;15925;51.222;5.678;2023-05-10T08:30:51;14.20;99.90
28773;DHT22;15925;51.222;5.678;2023-05-10T08:33:20;14.20;99.90
28773;DHT22;15925;51.222;5.678;2023-05-10T08:35:46;14.20;99.90
28773;DHT22;15925;51.222;5.678;2023-05-10T08:38:11;14.20;99.90
28773;DHT22;15925;51.222;5.678;2023-05-10T08:40:41;14.10;99.90
28773;DHT22;15925;51.222;5.678;2023-05-10T08:43:09;14.10;99.90
28773;DHT22;15925;51.222;5.678;2023-05-10T08:45:40;14.00;99.90
28773;DHT22;15925;51.222;5.678;2023-05-10T08:48:08;13.90;99.90
28773;DHT22;15925;51.222;5.678;2023-05-10T08:50:36;14.00;99.90
28773;DHT22;15925;51.222;5.678;2023-05-10T08:53:06;14.00;99.90
28773;DHT22;15925;51.222;5.678;2023-05-10T08:55:35;14.10;99.90
28773;DHT22;15925;51.222;5.678;2023-05-10T08:58:05;14.00;99.90
28773;DHT22;15925;51.222;5.678;2023-05-10T09:00:31;14.00;99.90
28773;DHT22;15925;51.222;5.678;2023-05-10T09:02:58;14.10;99.90
28773;DHT22;15925;51.222;5.678;2023-05-10T09:05:24;14.00;99.90
28773;DHT22;15925;51.222;5.678;2023-05-10T09:07:50;14.10;99.90
28773;DHT22;15925;51.222;5.678;2023-05-10T09:10:16;14.10;99.90
28773;DHT22;15925;51.222;5.678;2023-05-10T09:12:43;14.20;99.90
28773;DHT22;15925;51.222;5.678;2023-05-10T09:15:09;14.20;99.90
28773;DHT22;15925;51.222;5.678;2023-05-10T09:17:36;14.20;99.90
28773;DHT22;15925;51.222;5.678;2023-05-10T09:20:04;14.30;99.90
28773;DHT22;15925;51.222;5.678;2023-05-10T09:22:31;14.30;99.90
28773;DHT22;15925;51.222;5.678;2023-05-10T09:25:16;14.40;99.90
28773;DHT22;15925;51.222;5.678;2023-05-10T09:27:45;14.40;99.90
28773;DHT22;15925;51.222;5.678;2023-05-10T09:30:28;14.50;99.90
28773;DHT22;15925;51.222;5.678;2023-05-10T09:32:55;14.60;99.90
28773;DHT22;15925;51.222;5.678;2023-05-10T09:35:21;14.60;99.90
28773;DHT22;15925;51.222;5.678;2023-05-10T09:37:51;14.60;99.90
28773;DHT22;15925;51.222;5.678;2023-05-10T09:40:18;14.70;99.90
28773;DHT22;15925;51.222;5.678;2023-05-10T09:43:07;14.80;99.90
28773;DHT22;15925;51.222;5.678;2023-05-10T09:45:34;14.80;99.90
28773;DHT22;15925;51.222;5.678;2023-05-10T09:48:03;14.90;99.90
28773;DHT22;15925;51.222;5.678;2023-05-10T09:50:30;14.90;99.90
28773;DHT22;15925;51.222;5.678;2023-05-10T09:53:01;15.00;99.90
28773;DHT22;15925;51.222;5.678;2023-05-10T09:55:41;15.00;99.90
28773;DHT22;15925;51.222;5.678;2023-05-10T09:58:08;15.10;99.90
28773;DHT22;15925;51.222;5.678;2023-05-10T10:00:55;15.10;99.90
28773;DHT22;15925;51.222;5.678;2023-05-10T10:03:22;15.10;99.90
28773;DHT22;15925;51.222;5.678;2023-05-10T10:05:49;15.00;99.90
28773;DHT22;15925;51.222;5.678;2023-05-10T10:08:16;15.20;99.90
28773;DHT22;15925;51.222;5.678;2023-05-10T10:10:42;15.20;99.90
28773;DHT22;15925;51.222;5.678;2023-05-10T10:13:10;15.10;99.90
28773;DHT22;15925;51.222;5.678;2023-05-10T10:15:36;15.00;99.90
28773;DHT22;15925;51.222;5.678;2023-05-10T10:18:02;15.10;99.90
28773;DHT22;15925;51.222;5.678;2023-05-10T10:20:32;15.10;99.90
28773;DHT22;15925;51.222;5.678;2023-05-10T10:22:57;15.10;99.90
28773;DHT22;15925;51.222;5.678;2023-05-10T10:25:23;15.20;99.90
28773;DHT22;15925;51.222;5.678;2023-05-10T10:30:45;15.20;99.90
28773;DHT22;15925;51.222;5.678;2023-05-10T10:33:28;15.20;99.90
28773;DHT22;15925;51.222;5.678;2023-05-10T10:35:59;15.30;99.90
28773;DHT22;15925;51.222;5.678;2023-05-10T10:38:25;15.30;99.90
28773;DHT22;15925;51.222;5.678;2023-05-10T10:41:27;15.30;99.90
28773;DHT22;15925;51.222;5.678;2023-05-10T10:55:19;15.60;99.90
28773;DHT22;15925;51.222;5.678;2023-05-10T10:57:54;15.70;99.90
28773;DHT22;15925;51.222;5.678;2023-05-10T11:00:32;15.80;99.90
28773;DHT22;15925;51.222;5.678;2023-05-10T11:03:15;15.80;99.90
28773;DHT22;15925;51.222;5.678;2023-05-10T11:05:48;15.80;99.90
28773;DHT22;15925;51.222;5.678;2023-05-10T11:08:17;15.90;99.90
28773;DHT22;15925;51.222;5.678;2023-05-10T11:13:46;15.90;99.90
28773;DHT22;15925;51.222;5.678;2023-05-10T11:16:18;15.90;99.90
28773;DHT22;15925;51.222;5.678;2023-05-10T11:18:54;15.90;99.90
28773;DHT22;15925;51.222;5.678;2023-05-10T11:21:20;15.90;99.90
28773;DHT22;15925;51.222;5.678;2023-05-10T11:23:55;16.00;99.90
28773;DHT22;15925;51.222;5.678;2023-05-10T11:26:23;16.00;99.90
28773;DHT22;15925;51.222;5.678;2023-05-10T11:28:54;16.10;99.90
28773;DHT22;15925;51.222;5.678;2023-05-10T11:31:24;16.10;99.90
28773;DHT22;15925;51.222;5.678;2023-05-10T11:33:56;16.20;99.90
28773;DHT22;15925;51.222;5.678;2023-05-10T11:36:27;16.20;99.90
28773;DHT22;15925;51.222;5.678;2023-05-10T11:38:55;16.20;99.90
28773;DHT22;15925;51.222;5.678;2023-05-10T11:41:22;16.20;99.90
28773;DHT22;15925;51.222;5.678;2023-05-10T11:43:55;16.30;99.90
28773;DHT22;15925;51.222;5.678;2023-05-10T11:46:24;16.20;99.90
28773;DHT22;15925;51.222;5.678;2023-05-10T11:48:53;16.30;99.90
28773;DHT22;15925;51.222;5.678;2023-05-10T11:51:23;16.30;99.90
28773;DHT22;15925;51.222;5.678;2023-05-10T11:53:52;16.20;99.90
28773;DHT22;15925;51.222;5.678;2023-05-10T11:56:18;16.20;99.90
28773;DHT22;15925;51.222;5.678;2023-05-10T11:58:43;16.40;99.90
28773;DHT22;15925;51.222;5.678;2023-05-10T12:01:09;16.60;99.90
28773;DHT22;15925;51.222;5.678;2023-05-10T12:03:36;16.80;99.90
28773;DHT22;15925;51.222;5.678;2023-05-10T12:06:03;16.90;99.90
28773;DHT22;15925;51.222;5.678;2023-05-10T12:08:30;17.10;99.90
28773;DHT22;15925;51.222;5.678;2023-05-10T12:11:09;17.20;99.90
28773;DHT22;15925;51.222;5.678;2023-05-10T12:13:39;17.30;99.90
28773;DHT22;15925;51.222;5.678;2023-05-10T12:16:19;17.40;99.90
28773;DHT22;15925;51.222;5.678;2023-05-10T12:18:49;17.50;99.90
28773;DHT22;15925;51.222;5.678;2023-05-10T12:21:15;17.60;99.90
28773;DHT22;15925;51.222;5.678;2023-05-10T12:23:41;17.80;99.90
28773;DHT22;15925;51.222;5.678;2023-05-10T12:26:10;17.70;99.90
28773;DHT22;15925;51.222;5.678;2023-05-10T12:28:37;17.70;99.90
28773;DHT22;15925;51.222;5.678;2023-05-10T12:31:03;17.80;99.90
28773;DHT22;15925;51.222;5.678;2023-05-10T12:33:43;17.80;99.90
28773;DHT22;15925;51.222;5.678;2023-05-10T12:36:10;17.90;99.90
28773;DHT22;15925;51.222;5.678;2023-05-10T12:38:38;17.90;99.90
28773;DHT22;15925;51.222;5.678;2023-05-10T12:41:09;17.90;99.90
28773;DHT22;15925;51.222;5.678;2023-05-10T12:43:36;17.90;99.90
28773;DHT22;15925;51.222;5.678;2023-05-10T12:48:35;17.90;99.90
28773;DHT22;15925;51.222;5.678;2023-05-10T12:51:02;17.90;99.90
28773;DHT22;15925;51.222;5.678;2023-05-10T12:53:28;17.80;99.90
28773;DHT22;15925;51.222;5.678;2023-05-10T12:55:54;17.80;99.90
28773;DHT22;15925;51.222;5.678;2023-05-10T12:58:20;17.70;99.90
28773;DHT22;15925;51.222;5.678;2023-05-10T13:00:46;17.60;99.90
28773;DHT22;15925;51.222;5.678;2023-05-10T13:03:12;17.80;99.90
28773;DHT22;15925;51.222;5.678;2023-05-10T13:05:38;17.80;99.90
28773;DHT22;15925;51.222;5.678;2023-05-10T13:08:04;17.90;99.90
28773;DHT22;15925;51.222;5.678;2023-05-10T13:10:30;17.80;99.90
28773;DHT22;15925;51.222;5.678;2023-05-10T13:13:00;17.80;99.90
28773;DHT22;15925;51.222;5.678;2023-05-10T13:15:26;17.90;99.90
28773;DHT22;15925;51.222;5.678;2023-05-10T13:17:53;17.80;99.90
28773;DHT22;15925;51.222;5.678;2023-05-10T13:20:19;17.80;99.90
28773;DHT22;15925;51.222;5.678;2023-05-10T13:22:45;17.90;99.90
28773;DHT22;15925;51.222;5.678;2023-05-10T13:25:11;17.80;99.90
28773;DHT22;15925;51.222;5.678;2023-05-10T13:27:40;17.80;99.90
28773;DHT22;15925;51.222;5.678;2023-05-10T13:30:07;18.00;99.90
28773;DHT22;15925;51.222;5.678;2023-05-10T13:32:33;18.00;99.90
28773;DHT22;15925;51.222;5.678;2023-05-10T13:35:00;18.10;99.90
28773;DHT22;15925;51.222;5.678;2023-05-10T13:37:25;18.20;99.90
28773;DHT22;15925;51.222;5.678;2023-05-10T13:39:51;18.30;99.90
28773;DHT22;15925;51.222;5.678;2023-05-10T13:42:17;18.40;99.90
28773;DHT22;15925;51.222;5.678;2023-05-10T13:44:43;18.60;99.90
28773;DHT22;15925;51.222;5.678;2023-05-10T13:47:09;18.60;99.90
28773;DHT22;15925;51.222;5.678;2023-05-10T13:49:36;18.60;99.90
28773;DHT22;15925;51.222;5.678;2023-05-10T13:52:03;18.50;99.90
28773;DHT22;15925;51.222;5.678;2023-05-10T13:54:38;18.60;99.90
28773;DHT22;15925;51.222;5.678;2023-05-10T13:57:04;18.60;99.90
28773;DHT22;15925;51.222;5.678;2023-05-10T13:59:30;18.60;99.90
28773;DHT22;15925;51.222;5.678;2023-05-10T14:01:57;18.50;99.90
28773;DHT22;15925;51.222;5.678;2023-05-10T14:04:23;18.60;99.90
28773;DHT22;15925;51.222;5.678;2023-05-10T14:06:49;18.60;99.90
28773;DHT22;15925;51.222;5.678;2023-05-10T14:09:15;18.70;99.90
28773;DHT22;15925;51.222;5.678;2023-05-10T14:11:41;18.60;99.90
28773;DHT22;15925;51.222;5.678;2023-05-10T14:14:11;18.60;99.90
28773;DHT22;15925;51.222;5.678;2023-05-10T14:16:41;18.60;99.90
28773;DHT22;15925;51.222;5.678;2023-05-10T14:19:07;18.40;99.90
28773;DHT22;15925;51.222;5.678;2023-05-10T14:21:33;18.30;99.90
28773;DHT22;15925;51.222;5.678;2023-05-10T14:24:00;18.40;99.90
28773;DHT22;15925;51.222;5.678;2023-05-10T14:26:26;18.20;99.90
28773;DHT22;15925;51.222;5.678;2023-05-10T14:28:52;18.30;99.90
28773;DHT22;15925;51.222;5.678;2023-05-10T14:31:17;18.30;99.90
28773;DHT22;15925;51.222;5.678;2023-05-10T14:33:46;18.30;99.90
28773;DHT22;15925;51.222;5.678;2023-05-10T14:36:12;18.40;99.90
28773;DHT22;15925;51.222;5.678;2023-05-10T14:38:39;18.30;99.90
28773;DHT22;15925;51.222;5.678;2023-05-10T14:41:05;18.30;99.90
28773;DHT22;15925;51.222;5.678;2023-05-10T14:43:31;18.40;99.90
28773;DHT22;15925;51.222;5.678;2023-05-10T14:45:57;18.40;99.90
28773;DHT22;15925;51.222;5.678;2023-05-10T14:48:23;18.50;99.90
28773;DHT22;15925;51.222;5.678;2023-05-10T14:50:48;18.40;99.90
28773;DHT22;15925;51.222;5.678;2023-05-10T14:53:15;18.50;99.90
28773;DHT22;15925;51.222;5.678;2023-05-10T14:55:41;18.50;99.90
28773;DHT22;15925;51.222;5.678;2023-05-10T14:58:07;18.50;99.90
28773;DHT22;15925;51.222;5.678;2023-05-10T15:00:32;18.60;99.90
28773;DHT22;15925;51.222;5.678;2023-05-10T15:02:58;18.60;99.90
28773;DHT22;15925;51.222;5.678;2023-05-10T15:05:24;18.60;99.90
28773;DHT22;15925;51.222;5.678;2023-05-10T15:07:50;18.60;99.90
28773;DHT22;15925;51.222;5.678;2023-05-10T15:10:16;18.70;99.90
28773;DHT22;15925;51.222;5.678;2023-05-10T15:12:42;18.90;99.90
28773;DHT22;15925;51.222;5.678;2023-05-10T15:15:08;18.60;99.90
28773;DHT22;15925;51.222;5.678;2023-05-10T15:17:34;18.70;99.90
28773;DHT22;15925;51.222;5.678;2023-05-10T15:20:00;18.80;99.90
28773;DHT22;15925;51.222;5.678;2023-05-10T15:22:28;18.90;99.90
28773;DHT22;15925;51.222;5.678;2023-05-10T15:24:54;19.00;99.90
28773;DHT22;15925;51.222;5.678;2023-05-10T15:27:20;19.00;99.90
28773;DHT22;15925;51.222;5.678;2023-05-10T15:29:46;19.10;99.90
28773;DHT22;15925;51.222;5.678;2023-05-10T15:32:11;19.10;99.90
28773;DHT22;15925;51.222;5.678;2023-05-10T15:34:37;19.10;99.90
28773;DHT22;15925;51.222;5.678;2023-05-10T15:37:03;19.10;99.90
28773;DHT22;15925;51.222;5.678;2023-05-10T15:39:29;19.10;99.90
28773;DHT22;15925;51.222;5.678;2023-05-10T15:41:55;19.20;99.90
28773;DHT22;15925;51.222;5.678;2023-05-10T15:44:21;19.10;99.90
28773;DHT22;15925;51.222;5.678;2023-05-10T15:46:47;18.80;99.90
28773;DHT22;15925;51.222;5.678;2023-05-10T15:49:13;18.90;99.90
28773;DHT22;15925;51.222;5.678;2023-05-10T15:51:39;18.80;99.90
28773;DHT22;15925;51.222;5.678;2023-05-10T15:54:04;18.80;99.90
28773;DHT22;15925;51.222;5.678;2023-05-10T15:56:32;18.90;99.90
28773;DHT22;15925;51.222;5.678;2023-05-10T15:58:58;19.00;99.90
28773;DHT22;15925;51.222;5.678;2023-05-10T16:01:24;18.80;99.90
28773;DHT22;15925;51.222;5.678;2023-05-10T16:03:50;18.90;99.90
28773;DHT22;15925;51.222;5.678;2023-05-10T16:06:16;19.00;99.90
28773;DHT22;15925;51.222;5.678;2023-05-10T16:08:42;18.80;99.90
28773;DHT22;15925;51.222;5.678;2023-05-10T16:11:08;18.40;99.90